Orchard Park, New York
Current Conditions -  °F | °C
As of 8:54 PM on Saturday 22 Nov 2014 (Local Time) from KBUF Reporting Station
Light Rain Light Rain  
Wind Chill: 31°   Ceiling: 2500
Heat Index: 40°   Visibility: 9mi
Dew Point: 36°   Wind: 16mph
Humidity: 86%   Direction: 210°SSW
Pressure: 29.97"   Gusts: NA
Location:  42.77°N, 78.74°W
Report Text: KBUF 230154Z 21014KT 9SM -RA OVC025 04/02 A2997 RMK AO2 RAB05E26B49 SLP158 P0001 T00440022
Loading
Personal Weather Stations






























Interactive Weather Map New forecast layout! Learn more

10-Day Weather Forecast

Advertisements
Track Severe Weather on mobile